Pine Forge, Pennsylvania
Current Conditions -  °F | °C
As of 2:54 PM on Friday 24 Oct 2014 (Local Time) from KPTW Reporting Station
Clear Clear  
Wind Chill: 68°   Ceiling: Unl
Heat Index: 68°   Visibility: 10mi
Dew Point: 45°   Wind: 12mph
Humidity: 43%   Direction: 290°WNW
Pressure: 29.82"   Gusts: 20mph
Location:  40.28°N, 75.69°W
Report Text: KPTW 241854Z AUTO 29010G17KT 10SM CLR 20/07 A2982 RMK AO2 SLP096 T02000072
Loading
Personal Weather Stations






























Interactive Weather Map
Tropical Storm Tracking
New forecast layout! Learn more

10-Day Weather Forecast

Advertisements
Track Severe Weather on mobile